createdAt,value
2023-02-08T00:00:54.358Z,37.90
2023-02-08T00:03:21.334Z,35.37
2023-02-08T00:05:48.324Z,35.80
2023-02-08T00:08:15.462Z,35.70
2023-02-08T00:10:43.188Z,36.50
2023-02-08T00:13:10.262Z,34.73
2023-02-08T00:15:42.245Z,35.57
2023-02-08T00:18:09.719Z,34.23
2023-02-08T00:20:42.593Z,34.80
2023-02-08T00:23:09.871Z,33.20
2023-02-08T00:25:36.929Z,33.07
2023-02-08T00:28:04.864Z,34.47
2023-02-08T00:30:32.849Z,33.07
2023-02-08T00:33:01.440Z,33.50
2023-02-08T00:35:28.916Z,33.67
2023-02-08T00:37:56.128Z,31.73
2023-02-08T00:40:23.515Z,33.93
2023-02-08T00:42:50.781Z,33.70
2023-02-08T00:45:18.360Z,32.20
2023-02-08T00:47:45.251Z,33.60
2023-02-08T00:50:12.350Z,32.03
2023-02-08T00:52:39.286Z,31.00
2023-02-08T00:55:07.121Z,33.60
2023-02-08T00:57:34.594Z,33.77
2023-02-08T01:00:01.956Z,32.53
2023-02-08T01:02:29.349Z,31.33
2023-02-08T01:04:56.432Z,30.43
2023-02-08T01:07:23.507Z,31.33
2023-02-08T01:09:50.340Z,32.07
2023-02-08T01:12:17.321Z,32.67
2023-02-08T01:14:44.334Z,32.17
2023-02-08T01:17:11.192Z,32.23
2023-02-08T01:19:38.109Z,34.30
2023-02-08T01:22:04.993Z,34.00
2023-02-08T01:24:31.906Z,31.10
2023-02-08T01:26:58.830Z,31.77
2023-02-08T01:29:26.169Z,32.20
2023-02-08T01:31:53.691Z,30.30
2023-02-08T01:34:20.578Z,30.80
2023-02-08T01:36:47.475Z,31.73
2023-02-08T01:39:14.316Z,29.13
2023-02-08T01:41:44.406Z,30.70
2023-02-08T01:44:14.212Z,29.73
2023-02-08T01:46:51.154Z,31.50
2023-02-08T01:49:29.301Z,28.97
2023-02-08T01:52:01.692Z,29.10
2023-02-08T01:54:33.136Z,29.00
2023-02-08T01:56:59.987Z,29.23
2023-02-08T01:59:41.079Z,30.80
2023-02-08T02:02:12.281Z,29.57
2023-02-08T02:04:39.493Z,29.53
2023-02-08T02:07:06.964Z,30.50
2023-02-08T02:10:18.365Z,30.10
2023-02-08T02:12:45.711Z,29.90
2023-02-08T02:15:12.891Z,30.93
2023-02-08T02:17:40.473Z,28.67
2023-02-08T02:20:38.151Z,32.73
2023-02-08T02:23:54.812Z,30.60
2023-02-08T02:26:41.970Z,29.80
2023-02-08T02:29:46.672Z,29.90
2023-02-08T02:33:13.070Z,29.83
2023-02-08T02:36:06.649Z,30.47
2023-02-08T02:42:17.771Z,31.00
2023-02-08T02:45:13.673Z,29.90
2023-02-08T02:47:59.283Z,29.03
2023-02-08T02:50:43.621Z,31.03
2023-02-08T02:53:42.543Z,30.40
2023-02-08T02:56:26.230Z,29.23
2023-02-08T02:58:56.420Z,29.13
2023-02-08T03:01:26.524Z,27.43
2023-02-08T03:03:54.452Z,28.77
2023-02-08T03:10:11.357Z,29.77
2023-02-08T03:13:02.210Z,29.90
2023-02-08T03:16:02.041Z,29.90
2023-02-08T03:18:57.702Z,28.03
2023-02-08T03:21:44.658Z,29.57
2023-02-08T03:24:40.397Z,30.30
2023-02-08T03:27:20.493Z,28.33
2023-02-08T03:30:18.036Z,28.93
2023-02-08T03:32:52.715Z,28.17
2023-02-08T03:35:43.979Z,26.67
2023-02-08T03:38:16.141Z,26.77
2023-02-08T03:40:49.672Z,28.73
2023-02-08T03:43:30.516Z,29.00
2023-02-08T03:46:19.047Z,30.63
2023-02-08T03:48:51.816Z,31.60
2023-02-08T03:51:21.782Z,33.20
2023-02-08T03:53:51.432Z,34.00
2023-02-08T03:56:26.128Z,37.77
2023-02-08T03:59:01.600Z,38.67
2023-02-08T04:01:42.685Z,35.27
2023-02-08T04:04:10.263Z,34.27
2023-02-08T04:06:37.094Z,32.40
2023-02-08T04:09:04.088Z,33.03
2023-02-08T04:11:31.040Z,30.33
2023-02-08T04:13:57.942Z,29.20
2023-02-08T04:16:25.039Z,26.50
2023-02-08T04:18:51.925Z,27.83
2023-02-08T04:21:18.780Z,26.90
2023-02-08T04:23:45.645Z,30.30
2023-02-08T04:26:12.552Z,29.33
2023-02-08T04:28:39.485Z,30.27
2023-02-08T04:31:06.875Z,33.00
2023-02-08T04:33:33.989Z,33.00
2023-02-08T04:36:00.944Z,34.43
2023-02-08T04:38:27.891Z,33.33
2023-02-08T04:40:54.839Z,32.37
2023-02-08T04:43:21.765Z,35.17
2023-02-08T04:45:51.348Z,34.50
2023-02-08T04:48:19.081Z,30.07
2023-02-08T04:50:46.092Z,29.93
2023-02-08T04:53:13.075Z,29.87
2023-02-08T04:55:39.968Z,31.67
2023-02-08T04:58:06.858Z,31.20
2023-02-08T05:00:34.092Z,31.40
2023-02-08T05:03:01.103Z,31.07
2023-02-08T05:05:28.601Z,28.47
2023-02-08T05:07:55.545Z,31.20
2023-02-08T05:10:22.646Z,28.30
2023-02-08T05:12:49.563Z,31.50
2023-02-08T05:15:16.655Z,31.20
2023-02-08T05:17:43.558Z,30.57
2023-02-08T05:20:11.689Z,29.37
2023-02-08T05:22:38.650Z,29.00
2023-02-08T05:25:06.179Z,28.20
2023-02-08T05:27:35.057Z,26.40
2023-02-08T05:30:02.073Z,28.47
2023-02-08T05:32:29.464Z,28.43
2023-02-08T05:34:56.379Z,30.90
2023-02-08T05:37:23.351Z,32.00
2023-02-08T05:39:50.192Z,29.60
2023-02-08T05:42:17.073Z,29.03
2023-02-08T05:44:43.958Z,28.50
2023-02-08T05:47:10.817Z,31.13
2023-02-08T05:49:37.690Z,27.50
2023-02-08T05:52:04.788Z,30.97
2023-02-08T05:54:31.647Z,32.53
2023-02-08T05:56:58.568Z,31.90
2023-02-08T05:59:25.484Z,30.90
2023-02-08T06:01:52.376Z,31.70
2023-02-08T06:04:19.281Z,31.53
2023-02-08T06:06:46.355Z,34.37
2023-02-08T06:09:13.223Z,35.83
2023-02-08T06:11:40.124Z,32.10
2023-02-08T06:14:06.976Z,32.97
2023-02-08T06:16:33.881Z,33.73
2023-02-08T06:19:01.120Z,31.63
2023-02-08T06:21:28.473Z,31.83
2023-02-08T06:23:55.673Z,32.80
2023-02-08T06:26:22.578Z,33.30
2023-02-08T06:28:49.461Z,33.43
2023-02-08T06:31:17.103Z,34.10
2023-02-08T06:33:44.081Z,34.20
2023-02-08T06:36:10.969Z,33.10
2023-02-08T06:38:37.898Z,33.10
2023-02-08T06:41:04.926Z,31.93
2023-02-08T06:43:31.903Z,30.97
2023-02-08T06:45:58.779Z,31.40
2023-02-08T06:48:25.792Z,30.97
2023-02-08T06:50:53.929Z,30.87
2023-02-08T06:53:21.670Z,30.27
2023-02-08T06:55:51.855Z,30.20
2023-02-08T06:58:19.598Z,27.10
2023-02-08T07:00:46.733Z,30.27
2023-02-08T07:03:14.450Z,28.13
2023-02-08T07:05:45.224Z,28.40
2023-02-08T07:08:16.801Z,30.67
2023-02-08T07:10:46.143Z,29.93
2023-02-08T07:13:13.321Z,30.27
2023-02-08T07:15:40.241Z,31.17
2023-02-08T07:18:07.086Z,32.33
2023-02-08T07:20:33.941Z,29.03
2023-02-08T07:23:00.874Z,26.53
2023-02-08T07:25:27.815Z,23.80
2023-02-08T07:27:54.688Z,23.40
2023-02-08T07:30:21.905Z,19.50
2023-02-08T07:32:49.303Z,20.80
2023-02-08T07:35:16.261Z,19.00
2023-02-08T07:37:43.123Z,19.73
2023-02-08T07:40:11.163Z,17.30
2023-02-08T07:42:38.111Z,18.70
2023-02-08T07:45:05.544Z,16.57
2023-02-08T07:47:32.416Z,17.10
2023-02-08T07:49:59.342Z,17.77
2023-02-08T07:52:26.214Z,16.40
2023-02-08T07:54:53.035Z,16.87
2023-02-08T07:57:22.171Z,15.00
2023-02-08T07:59:49.088Z,16.60
2023-02-08T08:02:16.624Z,14.73
2023-02-08T08:04:43.590Z,15.97
2023-02-08T08:07:10.808Z,15.23
2023-02-08T08:09:37.699Z,15.93
2023-02-08T08:12:05.400Z,13.37
2023-02-08T08:14:32.331Z,13.33
2023-02-08T08:16:59.533Z,12.90
2023-02-08T08:19:26.791Z,13.00
2023-02-08T08:21:53.837Z,13.40
2023-02-08T08:24:20.758Z,14.13
2023-02-08T08:26:47.754Z,12.23
2023-02-08T08:29:15.107Z,13.30
2023-02-08T08:31:44.315Z,12.70
2023-02-08T08:34:11.640Z,13.23
2023-02-08T08:36:38.604Z,14.10
2023-02-08T08:39:05.724Z,13.07
2023-02-08T08:41:32.632Z,12.77
2023-02-08T08:43:59.518Z,10.90
2023-02-08T08:46:27.310Z,11.17
2023-02-08T08:48:54.257Z,10.27
2023-02-08T08:51:21.201Z,11.30
2023-02-08T08:53:48.078Z,10.07
2023-02-08T08:56:14.946Z,11.00
2023-02-08T08:58:43.516Z,9.60
2023-02-08T09:01:10.757Z,9.80
2023-02-08T09:03:37.749Z,10.30
2023-02-08T09:06:04.861Z,9.93
2023-02-08T09:08:31.802Z,9.40
2023-02-08T09:11:08.891Z,8.83
2023-02-08T09:13:36.368Z,8.50
2023-02-08T09:16:14.508Z,9.93
2023-02-08T09:18:42.331Z,9.17
2023-02-08T09:21:11.862Z,7.97
2023-02-08T09:23:38.940Z,8.30
2023-02-08T09:26:08.131Z,8.03
2023-02-08T09:28:35.077Z,7.80
2023-02-08T09:31:25.559Z,7.57
2023-02-08T09:33:56.803Z,7.10
2023-02-08T09:36:25.948Z,7.50
2023-02-08T09:39:00.424Z,8.43
2023-02-08T09:42:06.259Z,8.83
2023-02-08T09:45:04.676Z,8.60
2023-02-08T09:47:36.226Z,8.20
2023-02-08T09:50:21.264Z,8.87
2023-02-08T09:53:03.176Z,8.20
2023-02-08T09:55:51.929Z,7.80
2023-02-08T09:58:34.719Z,7.37
2023-02-08T10:01:04.111Z,7.10
2023-02-08T10:03:45.221Z,7.43
2023-02-08T10:06:15.775Z,7.00
2023-02-08T10:08:44.346Z,6.87
2023-02-08T10:11:58.273Z,6.93
2023-02-08T10:15:20.356Z,6.60
2023-02-08T10:18:26.873Z,6.70
2023-02-08T10:21:19.321Z,5.80
2023-02-08T10:24:13.403Z,5.60
2023-02-08T10:26:54.617Z,5.63
2023-02-08T10:29:51.794Z,5.10
2023-02-08T10:32:57.676Z,5.00
2023-02-08T10:35:37.848Z,4.80
2023-02-08T10:38:45.735Z,5.63
2023-02-08T10:41:22.005Z,5.60
2023-02-08T10:44:28.223Z,5.57
2023-02-08T10:47:22.661Z,4.47
2023-02-08T10:50:12.576Z,5.23
2023-02-08T10:52:39.484Z,4.83
2023-02-08T10:55:18.500Z,5.47
2023-02-08T10:57:48.450Z,4.97
2023-02-08T11:00:22.475Z,4.70
2023-02-08T11:02:52.944Z,4.60
2023-02-08T11:05:37.637Z,4.97
2023-02-08T11:08:17.745Z,5.73
2023-02-08T11:10:56.489Z,4.87
2023-02-08T11:13:26.514Z,6.80
2023-02-08T11:15:57.620Z,6.17
2023-02-08T11:18:36.193Z,5.37
2023-02-08T11:21:05.799Z,5.17
2023-02-08T11:23:36.304Z,6.50
2023-02-08T11:26:38.594Z,5.80
2023-02-08T11:29:27.173Z,5.30
2023-02-08T11:32:06.270Z,5.50
2023-02-08T11:34:39.000Z,5.07
2023-02-08T11:37:16.860Z,4.30
2023-02-08T11:39:50.017Z,5.23
2023-02-08T11:42:29.844Z,5.90
2023-02-08T11:44:59.870Z,4.87
2023-02-08T11:47:30.331Z,5.43
2023-02-08T11:50:02.939Z,4.50
2023-02-08T11:52:41.720Z,4.20
2023-02-08T11:55:28.026Z,4.13
2023-02-08T11:58:05.637Z,3.30
2023-02-08T12:00:38.300Z,3.70
2023-02-08T12:03:13.959Z,4.63
2023-02-08T12:06:16.261Z,3.00
2023-02-08T12:09:13.540Z,3.20
2023-02-08T12:11:47.438Z,3.73
2023-02-08T12:15:06.846Z,2.80
2023-02-08T12:17:59.649Z,2.53
2023-02-08T12:21:26.488Z,3.00
2023-02-08T12:24:06.907Z,3.00
2023-02-08T12:27:27.590Z,3.13
2023-02-08T12:30:25.307Z,3.00
2023-02-08T12:39:59.428Z,2.10
2023-02-08T12:42:48.586Z,3.03
2023-02-08T12:45:54.344Z,3.20
2023-02-08T12:49:06.649Z,3.80
2023-02-08T12:52:34.271Z,3.50
2023-02-08T12:55:25.849Z,3.70
2023-02-08T12:58:00.106Z,3.63
2023-02-08T13:00:30.426Z,3.73
2023-02-08T13:03:42.695Z,3.03
2023-02-08T13:06:16.733Z,2.80
2023-02-08T13:09:14.205Z,2.10
2023-02-08T13:11:55.705Z,2.13
2023-02-08T13:15:24.796Z,2.80
2023-02-08T13:18:09.999Z,2.80
2023-02-08T13:21:14.047Z,2.77
2023-02-08T13:23:52.466Z,2.47
2023-02-08T13:26:34.431Z,2.80
2023-02-08T13:29:03.888Z,2.60
2023-02-08T13:31:39.293Z,2.20
2023-02-08T13:34:27.250Z,2.57
2023-02-08T13:36:59.698Z,2.80
2023-02-08T13:39:41.613Z,2.97
2023-02-08T13:42:35.038Z,2.40
2023-02-08T13:45:03.433Z,2.50
2023-02-08T13:47:32.991Z,2.67
2023-02-08T13:50:07.930Z,2.67
2023-02-08T13:52:55.125Z,2.60
2023-02-08T13:55:53.504Z,2.67
2023-02-08T13:58:49.427Z,2.57
2023-02-08T14:01:16.190Z,2.20
2023-02-08T14:03:43.690Z,2.20
2023-02-08T14:06:24.459Z,2.80
2023-02-08T14:09:07.078Z,2.10
2023-02-08T14:11:49.705Z,2.90
2023-02-08T14:14:32.186Z,2.70
2023-02-08T14:17:29.212Z,2.90
2023-02-08T14:20:00.237Z,3.10
2023-02-08T14:22:37.614Z,3.17
2023-02-08T14:25:26.399Z,2.87
2023-02-08T14:27:59.282Z,3.23
2023-02-08T14:30:36.739Z,3.77
2023-02-08T14:33:16.961Z,3.70
2023-02-08T14:35:56.618Z,4.07
2023-02-08T14:39:03.989Z,3.87
2023-02-08T14:42:03.955Z,4.70
2023-02-08T14:45:00.772Z,4.30
2023-02-08T14:47:47.810Z,5.17
2023-02-08T14:50:20.771Z,4.80
2023-02-08T14:52:58.155Z,5.43
2023-02-08T14:55:28.391Z,4.70
2023-02-08T14:57:56.542Z,3.57
2023-02-08T15:00:28.638Z,5.20
2023-02-08T15:02:57.662Z,5.43
2023-02-08T15:05:30.094Z,5.07
2023-02-08T15:07:59.485Z,4.30
2023-02-08T15:10:28.670Z,4.60
2023-02-08T15:13:03.836Z,5.13
2023-02-08T15:15:42.869Z,4.60
2023-02-08T15:18:24.286Z,5.00
2023-02-08T15:21:06.274Z,4.43
2023-02-08T15:23:33.342Z,5.70
2023-02-08T15:26:03.564Z,5.83
2023-02-08T15:28:33.957Z,6.30
2023-02-08T15:31:10.737Z,5.83
2023-02-08T15:33:40.220Z,5.70
2023-02-08T15:36:15.706Z,5.63
2023-02-08T15:38:45.020Z,5.83
2023-02-08T15:41:24.376Z,5.70
2023-02-08T15:43:51.462Z,5.77
2023-02-08T15:46:25.685Z,6.07
2023-02-08T15:48:53.759Z,7.30
2023-02-08T15:51:23.255Z,6.50
2023-02-08T15:53:53.670Z,6.23
2023-02-08T15:56:38.058Z,5.97
2023-02-08T15:59:08.177Z,6.30
2023-02-08T16:01:35.358Z,5.80
2023-02-08T16:04:12.654Z,5.50
2023-02-08T16:06:46.428Z,6.10
2023-02-08T16:09:19.108Z,5.93
2023-02-08T16:11:50.059Z,5.80
2023-02-08T16:14:19.601Z,6.47
2023-02-08T16:16:51.376Z,5.77
2023-02-08T16:19:26.960Z,7.10
2023-02-08T16:22:22.961Z,4.80
2023-02-08T16:24:51.078Z,5.80
2023-02-08T16:27:26.938Z,6.40
2023-02-08T16:29:54.192Z,6.47
2023-02-08T16:32:29.888Z,6.70
2023-02-08T16:34:57.661Z,6.70
2023-02-08T16:37:33.652Z,8.20
2023-02-08T16:40:21.416Z,10.83
2023-02-08T16:42:48.317Z,9.87
2023-02-08T16:45:18.187Z,10.60
2023-02-08T16:47:54.729Z,11.23
2023-02-08T16:50:24.639Z,9.30
2023-02-08T16:53:03.336Z,12.00
2023-02-08T16:55:33.198Z,9.50
2023-02-08T16:58:00.606Z,10.03
2023-02-08T17:00:33.915Z,8.60
2023-02-08T17:03:01.714Z,6.93
2023-02-08T17:05:36.919Z,7.90
2023-02-08T17:08:08.010Z,7.73
2023-02-08T17:10:35.512Z,8.13
2023-02-08T17:13:20.608Z,7.97
2023-02-08T17:15:50.365Z,8.50
2023-02-08T17:18:17.472Z,9.40
2023-02-08T17:20:45.100Z,10.67
2023-02-08T17:23:12.577Z,9.80
2023-02-08T17:25:39.991Z,10.60
2023-02-08T17:28:16.119Z,10.00
2023-02-08T17:30:44.593Z,10.07
2023-02-08T17:33:20.856Z,10.77
2023-02-08T17:35:50.541Z,8.30
2023-02-08T17:38:18.524Z,8.70
2023-02-08T17:40:45.616Z,8.60
2023-02-08T17:43:13.042Z,10.53
2023-02-08T17:45:42.716Z,9.80
2023-02-08T17:48:10.230Z,8.57
2023-02-08T17:50:37.246Z,8.43
2023-02-08T17:53:04.241Z,8.30
2023-02-08T17:55:31.429Z,14.10
2023-02-08T17:57:58.563Z,10.23
2023-02-08T18:00:26.205Z,17.63
2023-02-08T18:02:55.360Z,11.30
2023-02-08T18:05:27.573Z,15.93
2023-02-08T18:07:56.475Z,16.10
2023-02-08T18:10:25.092Z,20.37
2023-02-08T18:12:52.056Z,19.87
2023-02-08T18:15:21.811Z,17.47
2023-02-08T18:17:50.508Z,20.37
2023-02-08T18:20:18.535Z,27.73
2023-02-08T18:22:46.184Z,15.87
2023-02-08T18:25:14.521Z,10.53
2023-02-08T18:27:41.807Z,13.27
2023-02-08T18:30:10.458Z,11.83
2023-02-08T18:32:37.907Z,13.17
2023-02-08T18:35:07.413Z,11.43
2023-02-08T18:37:35.461Z,11.13
2023-02-08T18:40:03.040Z,10.50
2023-02-08T18:42:31.713Z,10.43
2023-02-08T18:44:58.767Z,9.70
2023-02-08T18:47:25.698Z,9.87
2023-02-08T18:49:56.507Z,9.43
2023-02-08T18:52:24.154Z,10.37
2023-02-08T18:54:51.310Z,10.37
2023-02-08T18:57:18.688Z,11.13
2023-02-08T18:59:45.737Z,10.93
2023-02-08T19:02:19.665Z,10.90
2023-02-08T19:04:46.999Z,9.40
2023-02-08T19:07:15.082Z,8.00
2023-02-08T19:09:43.825Z,8.00
2023-02-08T19:12:10.943Z,7.37
2023-02-08T19:14:37.902Z,9.00
2023-02-08T19:17:04.844Z,8.27
2023-02-08T19:19:31.712Z,7.43
2023-02-08T19:21:58.616Z,7.17
2023-02-08T19:24:25.602Z,7.07
2023-02-08T19:26:52.537Z,6.67
2023-02-08T19:29:22.871Z,7.53
2023-02-08T19:31:50.712Z,8.00
2023-02-08T19:34:18.518Z,7.40
2023-02-08T19:36:53.588Z,6.77
2023-02-08T19:39:23.605Z,7.13
2023-02-08T19:41:52.780Z,8.30
2023-02-08T19:44:20.587Z,8.67
2023-02-08T19:46:52.701Z,9.33
2023-02-08T19:49:20.501Z,7.80
2023-02-08T19:51:47.816Z,7.53
2023-02-08T19:54:17.148Z,9.40
2023-02-08T19:56:44.203Z,8.17
2023-02-08T19:59:33.661Z,8.77
2023-02-08T20:02:02.057Z,8.80
2023-02-08T20:04:29.135Z,7.87
2023-02-08T20:06:56.224Z,8.03
2023-02-08T20:09:23.088Z,8.77
2023-02-08T20:11:59.718Z,7.80
2023-02-08T20:14:33.044Z,8.73
2023-02-08T20:17:04.439Z,9.83
2023-02-08T20:19:31.561Z,8.77
2023-02-08T20:21:58.460Z,9.40
2023-02-08T20:24:25.365Z,8.77
2023-02-08T20:26:52.262Z,8.20
2023-02-08T20:29:19.184Z,9.87
2023-02-08T20:31:50.203Z,10.63
2023-02-08T20:34:18.921Z,9.07
2023-02-08T20:37:04.545Z,11.00
2023-02-08T20:39:33.978Z,11.33
2023-02-08T20:42:00.852Z,9.67
2023-02-08T20:44:28.642Z,10.90
2023-02-08T20:46:55.755Z,11.53
2023-02-08T20:49:26.986Z,10.33
2023-02-08T20:51:54.765Z,13.57
2023-02-08T20:54:24.644Z,11.67
2023-02-08T20:56:53.629Z,15.13
2023-02-08T20:59:21.034Z,12.00
2023-02-08T21:01:47.989Z,12.20
2023-02-08T21:04:17.037Z,16.33
2023-02-08T21:06:46.075Z,14.90
2023-02-08T21:09:15.976Z,15.47
2023-02-08T21:11:44.167Z,14.17
2023-02-08T21:14:15.390Z,13.63
2023-02-08T21:16:42.415Z,15.73
2023-02-08T21:19:10.864Z,16.80
2023-02-08T21:21:37.808Z,13.97
2023-02-08T21:24:05.076Z,12.50
2023-02-08T21:26:32.208Z,11.90
2023-02-08T21:28:59.291Z,11.87
2023-02-08T21:31:26.919Z,12.67
2023-02-08T21:33:53.996Z,12.43
2023-02-08T21:36:24.731Z,13.90
2023-02-08T21:38:52.082Z,15.53
2023-02-08T21:41:22.380Z,15.63
2023-02-08T21:43:50.295Z,15.03
2023-02-08T21:46:18.256Z,15.30
2023-02-08T21:49:03.885Z,13.00
2023-02-08T21:51:49.588Z,15.73
2023-02-08T21:54:44.798Z,16.20
2023-02-08T21:57:19.224Z,16.10
2023-02-08T21:59:47.938Z,16.67
2023-02-08T22:02:21.881Z,16.00
2023-02-08T22:04:49.570Z,15.83
2023-02-08T22:07:16.536Z,16.03
2023-02-08T22:09:43.746Z,14.83
2023-02-08T22:12:15.903Z,16.03
2023-02-08T22:14:43.194Z,16.90
2023-02-08T22:17:10.774Z,17.30
2023-02-08T22:19:40.117Z,16.77
2023-02-08T22:22:07.878Z,15.80
2023-02-08T22:24:35.601Z,16.60
2023-02-08T22:27:03.071Z,18.50
2023-02-08T22:29:29.996Z,19.00
2023-02-08T22:31:58.033Z,34.80
2023-02-08T22:34:27.085Z,24.17
2023-02-08T22:36:54.021Z,34.57
2023-02-08T22:39:21.285Z,34.00
2023-02-08T22:41:48.390Z,31.40
2023-02-08T22:44:15.360Z,27.40
2023-02-08T22:46:42.289Z,25.80
2023-02-08T22:49:09.205Z,17.50
2023-02-08T22:51:36.202Z,17.30
2023-02-08T22:54:03.253Z,17.70
2023-02-08T22:56:30.154Z,18.27
2023-02-08T22:58:58.699Z,16.77
2023-02-08T23:01:27.167Z,17.33
2023-02-08T23:03:54.063Z,16.20
2023-02-08T23:06:21.026Z,17.73
2023-02-08T23:08:48.350Z,17.47
2023-02-08T23:11:15.733Z,15.97
2023-02-08T23:13:42.625Z,14.47
2023-02-08T23:16:12.616Z,15.53
2023-02-08T23:18:40.121Z,16.90
2023-02-08T23:21:08.736Z,13.80
2023-02-08T23:23:36.457Z,18.30
2023-02-08T23:26:14.021Z,16.03
2023-02-08T23:28:41.159Z,16.63
2023-02-08T23:31:10.151Z,15.10
2023-02-08T23:33:37.908Z,16.23
2023-02-08T23:36:06.419Z,17.23
2023-02-08T23:38:33.476Z,18.10
2023-02-08T23:41:12.066Z,20.70
2023-02-08T23:43:39.057Z,18.50
2023-02-08T23:46:29.953Z,18.00
2023-02-08T23:48:57.017Z,15.50
2023-02-08T23:51:25.140Z,15.13
2023-02-08T23:53:54.216Z,15.83
2023-02-08T23:56:27.396Z,16.47
2023-02-08T23:58:56.717Z,14.23
